createdAt,value
2023-05-13T00:02:15.261Z,101064.99
2023-05-13T00:04:43.594Z,101066.73
2023-05-13T00:07:11.886Z,101063.55
2023-05-13T00:09:40.143Z,101063.51
2023-05-13T00:12:08.422Z,101063.02
2023-05-13T00:14:37.417Z,101063.27
2023-05-13T00:17:05.786Z,101064.52
2023-05-13T00:19:33.864Z,101066.52
2023-05-13T00:22:02.129Z,101064.38
2023-05-13T00:24:30.299Z,101060.99
2023-05-13T00:26:58.989Z,101060.16
2023-05-13T00:29:27.280Z,101060.72
2023-05-13T00:31:55.613Z,101061.11
2023-05-13T00:34:24.533Z,101058.73
2023-05-13T00:36:53.110Z,101063.17
2023-05-13T00:39:21.288Z,101061.02
2023-05-13T00:41:49.451Z,101063.47
2023-05-13T00:44:17.935Z,101064.53
2023-05-13T00:46:46.416Z,101065.98
2023-05-13T00:49:14.482Z,101065.69
2023-05-13T00:51:42.654Z,101066.30
2023-05-13T00:54:10.843Z,101062.96
2023-05-13T00:56:39.310Z,101063.05
2023-05-13T00:59:07.373Z,101066.55
2023-05-13T01:01:49.057Z,101069.27
2023-05-13T01:04:44.173Z,101069.00
2023-05-13T01:07:14.910Z,101071.20
2023-05-13T01:10:06.357Z,101073.55
2023-05-13T01:12:41.043Z,101072.89
2023-05-13T01:15:14.214Z,101073.91
2023-05-13T01:17:49.840Z,101075.08
2023-05-13T01:20:22.601Z,101074.38
2023-05-13T01:22:51.549Z,101079.55
2023-05-13T01:25:20.639Z,101077.54
2023-05-13T01:27:48.995Z,101075.05
2023-05-13T01:30:17.817Z,101077.59
2023-05-13T01:32:46.422Z,101076.20
2023-05-13T01:35:18.354Z,101078.14
2023-05-13T01:37:48.055Z,101083.21
2023-05-13T01:40:31.158Z,101081.73
2023-05-13T01:43:02.831Z,101076.15
2023-05-13T01:45:32.437Z,101077.55
2023-05-13T01:48:00.914Z,101080.73
2023-05-13T01:50:35.128Z,101081.76
2023-05-13T01:53:03.716Z,101080.55
2023-05-13T01:55:32.398Z,101078.92
2023-05-13T01:58:01.801Z,101080.59
2023-05-13T02:00:30.689Z,101081.35
2023-05-13T02:02:59.047Z,101084.79
2023-05-13T02:05:27.337Z,101084.63
2023-05-13T02:07:56.122Z,101087.23
2023-05-13T02:10:24.454Z,101088.10
2023-05-13T02:12:52.877Z,101092.95
2023-05-13T02:15:21.050Z,101098.29
2023-05-13T02:17:49.252Z,101099.92
2023-05-13T02:20:17.600Z,101100.78
2023-05-13T02:22:46.512Z,101104.72
2023-05-13T02:25:14.665Z,101106.33
2023-05-13T02:27:42.834Z,101113.16
2023-05-13T02:30:11.737Z,101106.88
2023-05-13T02:32:42.945Z,101101.52
2023-05-13T02:35:11.800Z,101097.52
2023-05-13T02:37:40.442Z,101096.43
2023-05-13T02:40:11.163Z,101097.91
2023-05-13T02:42:39.345Z,101098.23
2023-05-13T02:45:09.759Z,101100.98
2023-05-13T02:47:40.130Z,101102.74
2023-05-13T02:50:10.310Z,101107.38
2023-05-13T02:52:40.436Z,101109.15
2023-05-13T02:55:09.777Z,101104.16
2023-05-13T02:57:38.419Z,101105.08
2023-05-13T03:00:07.445Z,101100.98
2023-05-13T03:02:36.573Z,101103.71
2023-05-13T03:05:05.388Z,101103.02
2023-05-13T03:07:33.564Z,101110.92
2023-05-13T03:10:01.835Z,101112.95
2023-05-13T03:12:30.620Z,101107.98
2023-05-13T03:14:59.426Z,101105.89
2023-05-13T03:17:31.030Z,101105.83
2023-05-13T03:19:59.443Z,101106.44
2023-05-13T03:22:27.919Z,101107.50
2023-05-13T03:24:57.429Z,101104.76
2023-05-13T03:27:27.540Z,101105.52
2023-05-13T03:29:55.918Z,101106.98
2023-05-13T03:32:30.736Z,101108.42
2023-05-13T03:35:01.275Z,101107.62
2023-05-13T03:37:30.169Z,101108.55
2023-05-13T03:39:58.655Z,101107.70
2023-05-13T03:42:28.041Z,101107.90
2023-05-13T03:44:59.795Z,101113.83
2023-05-13T03:47:28.446Z,101114.34
2023-05-13T03:49:59.832Z,101120.28
2023-05-13T03:52:28.103Z,101124.98
2023-05-13T03:54:56.336Z,101130.27
2023-05-13T03:57:24.554Z,101131.52
2023-05-13T03:59:52.833Z,101135.59
2023-05-13T04:02:22.068Z,101133.55
2023-05-13T04:04:50.615Z,101134.95
2023-05-13T04:07:20.827Z,101136.93
2023-05-13T04:09:49.006Z,101134.39
2023-05-13T04:12:18.430Z,101136.55
2023-05-13T04:14:46.990Z,101137.11
2023-05-13T04:17:15.437Z,101138.55
2023-05-13T04:19:43.736Z,101141.27
2023-05-13T04:22:12.024Z,101144.66
2023-05-13T04:24:40.190Z,101148.20
2023-05-13T04:27:08.262Z,101149.60
2023-05-13T04:29:36.527Z,101148.05
2023-05-13T04:32:05.230Z,101151.71
2023-05-13T04:34:33.697Z,101149.21
2023-05-13T04:37:01.860Z,101152.09
2023-05-13T04:39:30.676Z,101155.25
2023-05-13T04:41:59.742Z,101155.77
2023-05-13T04:44:27.919Z,101155.05
2023-05-13T04:46:56.014Z,101159.23
2023-05-13T04:49:24.258Z,101155.77
2023-05-13T04:51:54.202Z,101153.48
2023-05-13T04:54:22.891Z,101158.89
2023-05-13T04:56:51.440Z,101162.73
2023-05-13T04:59:19.768Z,101166.79
2023-05-13T05:01:47.959Z,101170.48
2023-05-13T05:04:16.403Z,101170.33
2023-05-13T05:06:45.976Z,101167.56
2023-05-13T05:09:14.553Z,101168.48
2023-05-13T05:11:42.831Z,101167.06
2023-05-13T05:14:11.104Z,101167.73
2023-05-13T05:16:39.152Z,101164.92
2023-05-13T05:19:07.358Z,101162.99
2023-05-13T05:21:37.586Z,101163.83
2023-05-13T05:24:07.457Z,101164.84
2023-05-13T05:26:35.856Z,101164.44
2023-05-13T05:29:04.027Z,101162.67
2023-05-13T05:31:32.263Z,101162.26
2023-05-13T05:34:03.447Z,101158.98
2023-05-13T05:36:31.728Z,101160.95
2023-05-13T05:39:00.204Z,101161.42
2023-05-13T05:41:33.697Z,101162.84
2023-05-13T05:44:01.970Z,101164.58
2023-05-13T05:46:32.758Z,101158.95
2023-05-13T05:49:03.823Z,101159.08
2023-05-13T05:51:34.882Z,101159.00
2023-05-13T05:54:04.439Z,101163.58
2023-05-13T05:56:32.977Z,101167.29
2023-05-13T05:59:01.436Z,101169.24
2023-05-13T06:01:36.741Z,101165.43
2023-05-13T06:04:06.857Z,101164.29
2023-05-13T06:06:35.831Z,101164.07
2023-05-13T06:09:04.173Z,101155.55
2023-05-13T06:11:32.652Z,101157.33
2023-05-13T06:14:01.030Z,101155.76
2023-05-13T06:16:29.432Z,101152.70
2023-05-13T06:18:57.878Z,101151.22
2023-05-13T06:21:26.780Z,101151.61
2023-05-13T06:23:54.950Z,101153.66
2023-05-13T06:26:23.134Z,101151.83
2023-05-13T06:28:51.404Z,101151.56
2023-05-13T06:31:19.713Z,101148.48
2023-05-13T06:33:48.258Z,101148.44
2023-05-13T06:36:16.837Z,101149.23
2023-05-13T06:38:45.003Z,101150.19
2023-05-13T06:41:13.893Z,101148.65
2023-05-13T06:43:42.188Z,101151.52
2023-05-13T06:46:17.199Z,101150.24
2023-05-13T06:48:46.293Z,101153.45
2023-05-13T06:51:14.472Z,101155.59
2023-05-13T06:53:42.644Z,101156.23
2023-05-13T06:56:10.925Z,101157.08
2023-05-13T06:58:39.190Z,101152.69
2023-05-13T07:01:07.711Z,101146.88
2023-05-13T07:03:36.617Z,101151.73
2023-05-13T07:06:04.933Z,101154.92
2023-05-13T07:08:33.003Z,101151.69
2023-05-13T07:11:01.380Z,101152.07
2023-05-13T07:13:30.375Z,101150.25
2023-05-13T07:15:58.541Z,101145.23
2023-05-13T07:18:26.957Z,101143.50
2023-05-13T07:20:56.524Z,101142.70
2023-05-13T07:23:24.800Z,101140.52
2023-05-13T07:25:53.176Z,101139.49
2023-05-13T07:28:21.346Z,101137.32
2023-05-13T07:30:49.865Z,101134.83
2023-05-13T07:33:18.002Z,101135.73
2023-05-13T07:35:46.278Z,101132.73
2023-05-13T07:38:14.759Z,101133.22
2023-05-13T07:40:42.926Z,101131.84
2023-05-13T07:43:11.916Z,101132.59
2023-05-13T07:45:40.399Z,101131.59
2023-05-13T07:48:10.253Z,101134.67
2023-05-13T07:50:38.594Z,101137.45
2023-05-13T07:53:06.871Z,101135.94
2023-05-13T07:55:35.033Z,101139.36
2023-05-13T07:58:03.416Z,101140.31
2023-05-13T08:00:31.706Z,101136.17
2023-05-13T08:02:59.968Z,101137.66
2023-05-13T08:05:28.445Z,101139.71
2023-05-13T08:07:56.820Z,101143.23
2023-05-13T08:10:24.992Z,101144.64
2023-05-13T08:12:57.900Z,101151.95
2023-05-13T08:15:27.584Z,101143.66
2023-05-13T08:17:55.888Z,101151.35
2023-05-13T08:20:30.331Z,101155.02
2023-05-13T08:22:58.784Z,101148.97
2023-05-13T08:25:27.036Z,101148.89
2023-05-13T08:27:55.608Z,101155.96
2023-05-13T08:30:23.702Z,101155.96
2023-05-13T08:32:51.997Z,101159.30
2023-05-13T08:35:20.728Z,101159.67
2023-05-13T08:37:49.251Z,101156.03
2023-05-13T08:40:17.594Z,101152.98
2023-05-13T08:42:50.262Z,101151.48
2023-05-13T08:45:22.049Z,101153.02
2023-05-13T08:48:10.748Z,101155.10
2023-05-13T08:50:39.279Z,101151.39
2023-05-13T08:53:07.967Z,101149.80
2023-05-13T08:55:36.127Z,101147.84
2023-05-13T08:58:04.397Z,101141.81
2023-05-13T09:00:34.726Z,101140.75
2023-05-13T09:03:03.205Z,101143.09
2023-05-13T09:05:32.174Z,101144.68
2023-05-13T09:08:07.110Z,101141.75
2023-05-13T09:10:36.114Z,101148.09
2023-05-13T09:13:05.106Z,101144.94
2023-05-13T09:15:33.538Z,101145.63
2023-05-13T09:18:04.590Z,101153.52
2023-05-13T09:20:33.538Z,101146.44
2023-05-13T09:23:07.875Z,101157.54
2023-05-13T09:25:37.535Z,101158.63
2023-05-13T09:28:08.064Z,101156.92
2023-05-13T09:30:44.513Z,101151.60
2023-05-13T09:33:22.793Z,101148.86
2023-05-13T09:35:53.049Z,101152.30
2023-05-13T09:38:22.460Z,101155.84
2023-05-13T09:40:54.987Z,101151.41
2023-05-13T09:43:28.473Z,101153.64
2023-05-13T09:45:58.545Z,101154.45
2023-05-13T09:48:28.570Z,101157.00
2023-05-13T09:50:58.525Z,101156.34
2023-05-13T09:53:27.687Z,101153.92
2023-05-13T09:55:57.697Z,101148.69
2023-05-13T09:58:31.149Z,101145.17
2023-05-13T10:01:00.038Z,101150.64
2023-05-13T10:03:29.740Z,101144.86
2023-05-13T10:06:01.307Z,101145.92
2023-05-13T10:08:31.564Z,101144.12
2023-05-13T10:10:59.935Z,101145.45
2023-05-13T10:13:29.950Z,101148.44
2023-05-13T10:15:58.942Z,101146.73
2023-05-13T10:18:29.307Z,101143.95
2023-05-13T10:20:58.069Z,101146.91
2023-05-13T10:23:26.734Z,101147.83
2023-05-13T10:25:58.286Z,101145.03
2023-05-13T10:28:28.288Z,101144.00
2023-05-13T10:30:57.440Z,101147.09
2023-05-13T10:33:27.315Z,101149.63
2023-05-13T10:36:11.660Z,101157.42
2023-05-13T10:39:10.448Z,101151.11
2023-05-13T10:41:57.151Z,101158.15
2023-05-13T10:44:25.321Z,101156.41
2023-05-13T10:46:56.670Z,101154.98
2023-05-13T10:49:26.480Z,101152.84
2023-05-13T10:52:04.461Z,101142.12
2023-05-13T10:54:38.925Z,101144.65
2023-05-13T10:57:07.589Z,101142.61
2023-05-13T10:59:37.382Z,101142.77
2023-05-13T11:02:24.679Z,101143.38
2023-05-13T11:05:00.573Z,101136.81
2023-05-13T11:07:29.472Z,101132.16
2023-05-13T11:09:57.633Z,101133.14
2023-05-13T11:12:25.934Z,101134.36
2023-05-13T11:14:57.056Z,101133.99
2023-05-13T11:17:26.216Z,101126.96
2023-05-13T11:19:54.428Z,101132.01
2023-05-13T11:22:26.485Z,101130.71
2023-05-13T11:25:05.850Z,101138.76
2023-05-13T11:27:39.341Z,101135.23
2023-05-13T11:30:22.162Z,101129.10
2023-05-13T11:32:56.866Z,101131.95
2023-05-13T11:35:30.254Z,101127.19
2023-05-13T11:38:00.410Z,101128.83
2023-05-13T11:40:36.530Z,101128.52
2023-05-13T11:43:08.080Z,101123.33
2023-05-13T11:45:39.443Z,101116.39
2023-05-13T11:48:22.362Z,101118.23
2023-05-13T11:50:52.162Z,101114.87
2023-05-13T11:53:22.711Z,101110.88
2023-05-13T11:55:51.897Z,101115.95
2023-05-13T11:58:21.732Z,101117.63
2023-05-13T12:00:49.962Z,101124.12
2023-05-13T12:03:18.152Z,101123.52
2023-05-13T12:05:46.610Z,101122.39
2023-05-13T12:08:15.027Z,101122.13
2023-05-13T12:10:44.474Z,101128.97
2023-05-13T12:13:13.182Z,101130.50
2023-05-13T12:15:41.899Z,101134.44
2023-05-13T12:18:10.427Z,101139.72
2023-05-13T12:20:38.845Z,101138.50
2023-05-13T12:23:07.004Z,101133.48
2023-05-13T12:25:38.882Z,101134.40
2023-05-13T12:28:17.345Z,101135.67
2023-05-13T12:30:51.902Z,101138.97
2023-05-13T12:33:22.154Z,101142.62
2023-05-13T12:35:53.061Z,101141.45
2023-05-13T12:38:24.147Z,101139.83
2023-05-13T12:40:53.472Z,101137.58
2023-05-13T12:43:21.773Z,101133.30
2023-05-13T12:45:56.772Z,101133.74
2023-05-13T12:48:26.213Z,101132.42
2023-05-13T12:50:54.471Z,101129.52
2023-05-13T12:53:22.659Z,101131.02
2023-05-13T12:55:51.228Z,101132.19
2023-05-13T12:58:19.397Z,101134.64
2023-05-13T13:00:47.772Z,101133.58
2023-05-13T13:03:16.392Z,101139.83
2023-05-13T13:05:44.735Z,101139.98
2023-05-13T13:08:12.912Z,101140.02
2023-05-13T13:10:41.020Z,101134.57
2023-05-13T13:13:09.354Z,101133.77
2023-05-13T13:15:38.144Z,101134.45
2023-05-13T13:18:06.606Z,101134.69
2023-05-13T13:20:34.999Z,101138.07
2023-05-13T13:23:03.276Z,101138.70
2023-05-13T13:25:33.188Z,101136.44
2023-05-13T13:28:01.800Z,101136.36
2023-05-13T13:30:30.765Z,101135.06
2023-05-13T13:32:59.127Z,101129.98
2023-05-13T13:35:27.520Z,101128.61
2023-05-13T13:37:56.197Z,101131.30
2023-05-13T13:40:24.588Z,101129.08
2023-05-13T13:42:52.849Z,101130.86
2023-05-13T13:45:24.306Z,101126.90
2023-05-13T13:47:52.523Z,101128.84
2023-05-13T13:50:21.006Z,101123.40
2023-05-13T13:52:52.406Z,101121.47
2023-05-13T13:55:21.701Z,101121.46
2023-05-13T13:57:51.026Z,101115.83
2023-05-13T14:00:19.697Z,101116.41
2023-05-13T14:02:48.666Z,101112.36
2023-05-13T14:05:17.357Z,101113.80
2023-05-13T14:07:46.453Z,101111.95
2023-05-13T14:10:14.625Z,101112.23
2023-05-13T14:12:42.716Z,101112.21
2023-05-13T14:15:11.582Z,101113.23
2023-05-13T14:17:39.671Z,101109.05
2023-05-13T14:20:10.351Z,101106.02
2023-05-13T14:22:38.665Z,101099.73
2023-05-13T14:25:07.135Z,101107.68
2023-05-13T14:27:36.617Z,101108.80
2023-05-13T14:30:06.667Z,101106.79
2023-05-13T14:32:34.887Z,101107.95
2023-05-13T14:35:03.142Z,101108.02
2023-05-13T14:37:31.277Z,101108.09
2023-05-13T14:39:59.450Z,101111.47
2023-05-13T14:42:27.725Z,101109.50
2023-05-13T14:44:55.794Z,101110.83
2023-05-13T14:47:24.274Z,101106.84
2023-05-13T14:49:52.445Z,101102.36
2023-05-13T14:52:20.713Z,101102.27
2023-05-13T14:54:48.995Z,101106.77
2023-05-13T14:57:17.069Z,101108.79
2023-05-13T14:59:45.335Z,101108.15
2023-05-13T15:02:14.100Z,101106.28
2023-05-13T15:04:42.498Z,101109.23
2023-05-13T15:07:11.186Z,101104.40
2023-05-13T15:09:39.357Z,101101.48
2023-05-13T15:12:08.242Z,101106.91
2023-05-13T15:14:36.414Z,101108.06
2023-05-13T15:17:06.109Z,101100.42
2023-05-13T15:19:34.398Z,101098.80
2023-05-13T15:22:02.578Z,101096.67
2023-05-13T15:24:31.052Z,101105.14
2023-05-13T15:26:59.223Z,101103.88
2023-05-13T15:29:27.703Z,101104.59
2023-05-13T15:31:55.872Z,101103.05
2023-05-13T15:34:24.152Z,101106.71
2023-05-13T15:36:53.145Z,101107.52
2023-05-13T15:39:21.316Z,101103.69
2023-05-13T15:41:49.587Z,101095.68
2023-05-13T15:44:17.973Z,101101.15
2023-05-13T15:46:49.505Z,101099.21
2023-05-13T15:49:18.210Z,101097.64
2023-05-13T15:51:46.689Z,101097.33
2023-05-13T15:54:14.854Z,101090.64
2023-05-13T15:56:43.027Z,101090.44
2023-05-13T15:59:11.198Z,101089.33
2023-05-13T16:01:41.857Z,101078.44
2023-05-13T16:04:10.213Z,101084.50
2023-05-13T16:06:38.482Z,101078.80
2023-05-13T16:09:06.966Z,101078.58
2023-05-13T16:11:35.133Z,101077.94
2023-05-13T16:14:04.839Z,101081.06
2023-05-13T16:16:33.091Z,101075.61
2023-05-13T16:19:03.784Z,101076.65
2023-05-13T16:21:32.124Z,101074.36
2023-05-13T16:24:00.199Z,101074.79
2023-05-13T16:26:28.468Z,101073.88
2023-05-13T16:28:56.638Z,101069.54
2023-05-13T16:31:24.945Z,101068.77
2023-05-13T16:33:53.495Z,101067.30
2023-05-13T16:36:22.079Z,101066.70
2023-05-13T16:38:50.265Z,101067.70
2023-05-13T16:41:18.425Z,101068.52
2023-05-13T16:43:46.491Z,101063.70
2023-05-13T16:46:16.702Z,101060.32
2023-05-13T16:48:45.637Z,101060.88
2023-05-13T16:51:13.875Z,101062.64
2023-05-13T16:53:42.049Z,101065.84
2023-05-13T16:56:10.240Z,101062.76
2023-05-13T16:58:38.903Z,101065.86
2023-05-13T17:01:07.182Z,101065.02
2023-05-13T17:03:35.422Z,101065.70
2023-05-13T17:06:03.831Z,101062.94
2023-05-13T17:08:32.002Z,101059.61
2023-05-13T17:11:00.277Z,101061.98
2023-05-13T17:13:28.552Z,101059.36
2023-05-13T17:15:56.725Z,101064.34
2023-05-13T17:18:26.607Z,101067.95
2023-05-13T17:20:55.173Z,101069.25
2023-05-13T17:23:23.407Z,101069.27
2023-05-13T17:25:51.670Z,101067.02
2023-05-13T17:28:20.046Z,101065.79
2023-05-13T17:30:48.457Z,101067.79
2023-05-13T17:33:16.799Z,101064.89
2023-05-13T17:35:44.976Z,101065.80
2023-05-13T17:38:13.245Z,101073.57
2023-05-13T17:40:41.522Z,101074.20
2023-05-13T17:43:09.800Z,101073.45
2023-05-13T17:45:37.982Z,101075.34
2023-05-13T17:48:06.691Z,101072.29
2023-05-13T17:50:34.933Z,101074.16
2023-05-13T17:53:03.429Z,101074.64
2023-05-13T17:55:31.683Z,101074.36
2023-05-13T17:58:00.056Z,101072.80
2023-05-13T18:00:28.660Z,101068.63
2023-05-13T18:02:56.953Z,101066.70
2023-05-13T18:05:25.249Z,101069.34
2023-05-13T18:07:53.570Z,101071.02
2023-05-13T18:10:22.228Z,101070.39
2023-05-13T18:12:51.966Z,101074.42
2023-05-13T18:15:20.662Z,101071.29
2023-05-13T18:17:49.744Z,101073.80
2023-05-13T18:20:18.423Z,101075.29
2023-05-13T18:22:46.794Z,101080.31
2023-05-13T18:25:15.081Z,101079.98
2023-05-13T18:27:43.243Z,101079.34
2023-05-13T18:30:12.252Z,101082.06
2023-05-13T18:32:40.541Z,101083.41
2023-05-13T18:35:09.194Z,101085.88
2023-05-13T18:37:37.368Z,101088.15
2023-05-13T18:40:06.366Z,101089.66
2023-05-13T18:42:34.532Z,101091.81
2023-05-13T18:45:02.708Z,101099.44
2023-05-13T18:47:30.992Z,101100.39
2023-05-13T18:49:59.259Z,101099.59
2023-05-13T18:52:27.423Z,101100.46
2023-05-13T18:54:55.809Z,101105.88
2023-05-13T18:57:24.395Z,101106.66
2023-05-13T18:59:52.987Z,101105.59
2023-05-13T19:02:21.567Z,101107.95
2023-05-13T19:04:50.125Z,101109.10
2023-05-13T19:07:18.408Z,101114.98
2023-05-13T19:09:48.111Z,101119.33
2023-05-13T19:12:16.496Z,101115.77
2023-05-13T19:14:44.866Z,101117.92
2023-05-13T19:17:13.126Z,101117.09
2023-05-13T19:19:42.337Z,101116.11
2023-05-13T19:22:10.402Z,101119.13
2023-05-13T19:24:38.476Z,101126.13
2023-05-13T19:27:07.366Z,101126.11
2023-05-13T19:29:36.088Z,101127.48
2023-05-13T19:32:04.331Z,101129.38
2023-05-13T19:34:32.706Z,101132.72
2023-05-13T19:37:00.981Z,101134.14
2023-05-13T19:39:29.149Z,101133.73
2023-05-13T19:41:57.320Z,101133.09
2023-05-13T19:44:28.083Z,101131.88
2023-05-13T19:46:57.494Z,101134.93
2023-05-13T19:49:25.831Z,101137.80
2023-05-13T19:51:54.428Z,101135.23
2023-05-13T19:54:22.760Z,101135.83
2023-05-13T19:56:50.961Z,101134.94
2023-05-13T19:59:19.439Z,101134.52
2023-05-13T20:01:47.656Z,101136.41
2023-05-13T20:04:16.606Z,101135.98
2023-05-13T20:06:44.790Z,101134.70
2023-05-13T20:09:13.157Z,101133.50
2023-05-13T20:11:41.328Z,101135.52
2023-05-13T20:14:09.701Z,101133.20
2023-05-13T20:16:38.392Z,101133.75
2023-05-13T20:19:06.619Z,101133.83
2023-05-13T20:21:34.847Z,101137.39
2023-05-13T20:24:03.117Z,101133.64
2023-05-13T20:26:34.769Z,101133.73
2023-05-13T20:29:03.867Z,101136.35
2023-05-13T20:31:32.069Z,101136.08
2023-05-13T20:34:00.514Z,101136.74
2023-05-13T20:36:28.789Z,101134.71
2023-05-13T20:38:57.072Z,101134.94
2023-05-13T20:41:25.235Z,101135.84
2023-05-13T20:43:53.408Z,101135.98
2023-05-13T20:46:21.513Z,101135.94
2023-05-13T20:48:49.851Z,101138.35
2023-05-13T20:51:18.030Z,101137.74
2023-05-13T20:53:47.538Z,101132.63
2023-05-13T20:56:15.702Z,101133.05
2023-05-13T20:58:43.976Z,101133.08
2023-05-13T21:01:12.932Z,101129.89
2023-05-13T21:03:41.224Z,101131.87
2023-05-13T21:06:09.520Z,101130.32
2023-05-13T21:08:40.172Z,101131.90
2023-05-13T21:11:08.423Z,101132.05
2023-05-13T21:13:36.699Z,101129.42
2023-05-13T21:16:05.923Z,101129.27
2023-05-13T21:18:34.371Z,101130.33
2023-05-13T21:21:08.655Z,101130.82
2023-05-13T21:23:37.268Z,101132.16
2023-05-13T21:26:11.908Z,101130.55
2023-05-13T21:28:40.473Z,101133.19
2023-05-13T21:31:08.773Z,101133.50
2023-05-13T21:33:37.021Z,101136.26
2023-05-13T21:36:05.924Z,101134.62
2023-05-13T21:38:34.085Z,101136.61
2023-05-13T21:41:02.460Z,101138.80
2023-05-13T21:43:30.736Z,101137.88
2023-05-13T21:45:58.910Z,101138.17
2023-05-13T21:48:27.101Z,101137.02
2023-05-13T21:50:55.250Z,101136.07
2023-05-13T21:53:24.146Z,101137.59
2023-05-13T21:55:53.744Z,101134.09
2023-05-13T21:58:23.373Z,101133.37
2023-05-13T22:00:52.907Z,101132.96
2023-05-13T22:03:21.300Z,101135.16
2023-05-13T22:05:49.717Z,101130.23
2023-05-13T22:08:17.882Z,101132.91
2023-05-13T22:10:46.157Z,101125.86
2023-05-13T22:13:14.640Z,101128.73
2023-05-13T22:15:42.837Z,101132.11
2023-05-13T22:18:11.165Z,101134.41
2023-05-13T22:20:39.459Z,101132.39
2023-05-13T22:23:07.655Z,101128.44
2023-05-13T22:25:35.807Z,101132.89
2023-05-13T22:28:04.183Z,101129.79
2023-05-13T22:30:32.462Z,101127.20
2023-05-13T22:33:00.929Z,101128.14
2023-05-13T22:35:29.560Z,101126.73
2023-05-13T22:37:57.867Z,101126.11
2023-05-13T22:40:26.163Z,101129.95
2023-05-13T22:42:54.563Z,101130.98
2023-05-13T22:45:22.708Z,101133.75
2023-05-13T22:47:51.230Z,101135.48
2023-05-13T22:50:19.796Z,101135.48
2023-05-13T22:52:48.164Z,101133.39
2023-05-13T22:55:16.337Z,101130.27
2023-05-13T22:57:44.617Z,101131.14
2023-05-13T23:00:13.502Z,101130.48
2023-05-13T23:02:41.710Z,101132.91
2023-05-13T23:05:10.184Z,101131.34
2023-05-13T23:07:38.423Z,101130.58
2023-05-13T23:10:07.195Z,101125.81
2023-05-13T23:12:35.378Z,101125.35
2023-05-13T23:15:04.372Z,101119.86
2023-05-13T23:17:32.565Z,101122.68
2023-05-13T23:20:01.129Z,101123.10
2023-05-13T23:22:29.400Z,101126.02
2023-05-13T23:24:57.675Z,101126.24
2023-05-13T23:27:25.753Z,101124.52
2023-05-13T23:29:53.811Z,101120.73
2023-05-13T23:32:22.022Z,101112.44
2023-05-13T23:34:50.905Z,101114.25
2023-05-13T23:37:19.561Z,101110.50
2023-05-13T23:39:47.834Z,101109.70
2023-05-13T23:42:16.867Z,101109.39
2023-05-13T23:44:44.994Z,101108.85
2023-05-13T23:47:13.783Z,101105.91
2023-05-13T23:49:41.958Z,101108.73
2023-05-13T23:52:10.238Z,101105.15
2023-05-13T23:54:38.512Z,101103.39
2023-05-13T23:57:06.782Z,101105.89
2023-05-13T23:59:35.068Z,101104.05
